createdAt,value
2022-10-26T00:01:16.639Z,63.69
2022-10-26T00:03:46.632Z,64.14
2022-10-26T00:06:16.906Z,64.05
2022-10-26T00:08:45.790Z,64.13
2022-10-26T00:11:16.378Z,64.15
2022-10-26T00:13:45.282Z,64.29
2022-10-26T00:16:15.652Z,64.33
2022-10-26T00:18:44.380Z,64.51
2022-10-26T00:21:13.886Z,64.28
2022-10-26T00:23:42.065Z,64.39
2022-10-26T00:26:10.812Z,64.63
2022-10-26T00:28:42.083Z,64.80
2022-10-26T00:31:14.226Z,65.09
2022-10-26T00:33:42.795Z,65.46
2022-10-26T00:36:13.998Z,65.37
2022-10-26T00:38:46.114Z,66.01
2022-10-26T00:41:16.548Z,66.21
2022-10-26T00:43:47.638Z,66.35
2022-10-26T00:46:20.171Z,66.26
2022-10-26T00:48:52.312Z,66.49
2022-10-26T00:51:26.972Z,66.50
2022-10-26T00:53:56.911Z,66.69
2022-10-26T00:56:25.664Z,66.73
2022-10-26T00:58:57.449Z,67.21
2022-10-26T01:01:25.685Z,67.11
2022-10-26T01:03:54.821Z,67.24
2022-10-26T01:06:23.251Z,67.85
2022-10-26T01:08:52.001Z,67.75
2022-10-26T01:11:21.021Z,68.02
2022-10-26T01:13:52.591Z,67.83
2022-10-26T01:16:42.857Z,68.38
2022-10-26T01:19:34.499Z,68.24
2022-10-26T01:22:05.872Z,68.33
2022-10-26T01:25:03.235Z,68.64
2022-10-26T01:27:35.786Z,68.92
2022-10-26T01:30:33.388Z,69.15
2022-10-26T01:33:25.257Z,69.99
2022-10-26T01:36:02.663Z,70.09
2022-10-26T01:38:40.205Z,70.39
2022-10-26T01:41:16.896Z,70.48
2022-10-26T01:43:51.825Z,70.42
2022-10-26T01:46:25.171Z,70.60
2022-10-26T01:48:57.394Z,70.52
2022-10-26T01:51:28.117Z,70.81
2022-10-26T01:53:56.431Z,71.23
2022-10-26T01:56:28.139Z,71.39
2022-10-26T01:59:14.886Z,71.56
2022-10-26T02:02:16.372Z,71.81
2022-10-26T02:04:59.664Z,72.39
2022-10-26T02:07:36.616Z,72.82
2022-10-26T02:10:18.123Z,72.82
2022-10-26T02:12:54.570Z,73.36
2022-10-26T02:15:26.745Z,73.20
2022-10-26T02:18:01.245Z,73.34
2022-10-26T02:20:34.784Z,73.08
2022-10-26T02:23:05.620Z,73.13
2022-10-26T02:25:37.136Z,73.33
2022-10-26T02:28:09.227Z,73.24
2022-10-26T02:30:39.951Z,73.52
2022-10-26T02:33:14.179Z,73.67
2022-10-26T02:35:44.651Z,73.46
2022-10-26T02:38:14.978Z,73.83
2022-10-26T02:40:44.092Z,74.10
2022-10-26T02:43:16.473Z,74.49
2022-10-26T02:45:47.844Z,74.43
2022-10-26T02:48:17.866Z,74.59
2022-10-26T02:50:56.346Z,75.22
2022-10-26T02:53:29.092Z,75.10
2022-10-26T02:55:57.259Z,75.31
2022-10-26T02:58:29.748Z,75.59
2022-10-26T03:00:59.286Z,75.84
2022-10-26T03:03:28.815Z,75.79
2022-10-26T03:05:57.110Z,76.07
2022-10-26T03:08:25.421Z,75.92
2022-10-26T03:10:53.967Z,76.11
2022-10-26T03:13:22.204Z,76.16
2022-10-26T03:15:50.356Z,76.50
2022-10-26T03:18:18.437Z,76.43
2022-10-26T03:20:47.994Z,76.93
2022-10-26T03:23:16.138Z,77.24
2022-10-26T03:25:44.267Z,76.87
2022-10-26T03:28:12.578Z,76.58
2022-10-26T03:30:40.713Z,76.83
2022-10-26T03:33:08.802Z,76.68
2022-10-26T03:35:36.844Z,76.74
2022-10-26T03:38:06.408Z,76.59
2022-10-26T03:40:35.997Z,76.44
2022-10-26T03:43:04.485Z,76.45
2022-10-26T03:45:32.605Z,76.54
2022-10-26T03:48:01.728Z,77.13
2022-10-26T03:50:29.802Z,76.82
2022-10-26T03:52:57.921Z,76.79
2022-10-26T03:55:28.437Z,76.89
2022-10-26T03:57:56.496Z,77.29
2022-10-26T04:00:24.591Z,77.07
2022-10-26T04:02:57.588Z,77.65
2022-10-26T04:05:26.505Z,78.12
2022-10-26T04:07:55.414Z,78.65
2022-10-26T04:10:24.105Z,78.81
2022-10-26T04:12:53.919Z,78.74
2022-10-26T04:15:22.762Z,78.73
2022-10-26T04:17:57.265Z,78.90
2022-10-26T04:20:25.665Z,78.88
2022-10-26T04:23:01.607Z,79.12
2022-10-26T04:25:32.855Z,78.98
2022-10-26T04:28:03.914Z,79.09
2022-10-26T04:30:32.280Z,78.50
2022-10-26T04:33:00.769Z,78.41
2022-10-26T04:35:29.759Z,77.42
2022-10-26T04:38:01.233Z,76.82
2022-10-26T04:40:29.784Z,75.90
2022-10-26T04:42:58.015Z,75.76
2022-10-26T04:45:31.079Z,75.79
2022-10-26T04:48:04.745Z,76.04
2022-10-26T04:50:33.143Z,76.45
2022-10-26T04:53:01.408Z,76.21
2022-10-26T04:55:29.711Z,76.05
2022-10-26T04:58:00.351Z,76.42
2022-10-26T05:00:32.973Z,76.39
2022-10-26T05:03:01.625Z,76.68
2022-10-26T05:05:30.282Z,76.94
2022-10-26T05:07:58.748Z,76.80
2022-10-26T05:10:27.841Z,75.90
2022-10-26T05:12:57.373Z,75.53
2022-10-26T05:15:25.833Z,74.97
2022-10-26T05:17:58.667Z,74.24
2022-10-26T05:20:30.120Z,73.46
2022-10-26T05:22:58.986Z,73.34
2022-10-26T05:25:27.582Z,73.09
2022-10-26T05:27:59.252Z,72.71
2022-10-26T05:30:27.548Z,72.54
2022-10-26T05:32:57.709Z,72.26
2022-10-26T05:35:26.770Z,72.30
2022-10-26T05:37:55.611Z,71.85
2022-10-26T05:40:24.057Z,71.92
2022-10-26T05:42:53.011Z,71.24
2022-10-26T05:45:21.607Z,71.31
2022-10-26T05:47:49.883Z,71.24
2022-10-26T05:50:19.726Z,71.40
2022-10-26T05:52:49.137Z,71.99
2022-10-26T05:55:19.425Z,72.05
2022-10-26T05:57:48.515Z,72.33
2022-10-26T06:00:19.367Z,71.86
2022-10-26T06:03:03.904Z,71.53
2022-10-26T06:05:36.969Z,71.75
2022-10-26T06:08:09.777Z,71.22
2022-10-26T06:10:38.884Z,71.79
2022-10-26T06:13:07.537Z,71.23
2022-10-26T06:15:44.237Z,70.95
2022-10-26T06:18:22.642Z,70.67
2022-10-26T06:21:03.060Z,70.45
2022-10-26T06:23:54.548Z,70.15
2022-10-26T06:26:34.529Z,69.40
2022-10-26T06:29:12.408Z,69.21
2022-10-26T06:31:40.606Z,68.40
2022-10-26T06:34:12.439Z,68.22
2022-10-26T06:36:42.987Z,67.97
2022-10-26T06:39:13.670Z,68.50
2022-10-26T06:41:42.442Z,68.89
2022-10-26T06:44:19.628Z,69.34
2022-10-26T06:46:52.818Z,69.59
2022-10-26T06:49:29.000Z,69.92
2022-10-26T06:52:01.320Z,69.48
2022-10-26T06:54:41.776Z,70.11
2022-10-26T06:57:10.539Z,69.88
2022-10-26T06:59:42.132Z,70.61
2022-10-26T07:02:11.006Z,70.54
2022-10-26T07:04:39.504Z,70.90
2022-10-26T07:07:10.515Z,70.85
2022-10-26T07:09:38.620Z,71.00
2022-10-26T07:12:06.969Z,71.36
2022-10-26T07:14:35.206Z,71.85
2022-10-26T07:17:03.413Z,72.40
2022-10-26T07:19:32.072Z,72.61
2022-10-26T07:22:01.296Z,72.43
2022-10-26T07:24:31.099Z,72.79
2022-10-26T07:27:00.450Z,73.37
2022-10-26T07:29:29.372Z,73.49
2022-10-26T07:31:57.580Z,72.74
2022-10-26T07:34:25.637Z,73.83
2022-10-26T07:36:53.738Z,73.71
2022-10-26T07:39:21.781Z,73.02
2022-10-26T07:41:51.324Z,72.09
2022-10-26T07:44:19.665Z,72.23
2022-10-26T07:46:48.525Z,72.66
2022-10-26T07:49:19.323Z,72.07
2022-10-26T07:51:47.876Z,71.68
2022-10-26T07:54:16.151Z,71.31
2022-10-26T07:56:46.738Z,70.60
2022-10-26T07:59:17.195Z,69.25
2022-10-26T08:01:45.964Z,68.30
2022-10-26T08:04:14.076Z,67.38
2022-10-26T08:06:42.440Z,66.37
2022-10-26T08:09:10.531Z,65.14
2022-10-26T08:11:38.610Z,63.18
2022-10-26T08:14:07.022Z,61.94
2022-10-26T08:16:36.579Z,60.73
2022-10-26T08:19:04.689Z,59.02
2022-10-26T08:21:39.501Z,58.83
2022-10-26T08:24:09.093Z,59.31
2022-10-26T08:26:37.634Z,59.40
2022-10-26T08:29:05.779Z,59.05
2022-10-26T08:31:34.398Z,58.30
2022-10-26T08:34:04.557Z,58.63
2022-10-26T08:36:32.838Z,58.50
2022-10-26T08:39:01.084Z,59.48
2022-10-26T08:41:37.463Z,60.44
2022-10-26T08:44:16.451Z,60.08
2022-10-26T08:46:47.992Z,61.36
2022-10-26T08:49:24.422Z,60.88
2022-10-26T08:51:57.508Z,60.12
2022-10-26T08:54:38.461Z,59.51
2022-10-26T08:57:17.601Z,58.56
2022-10-26T08:59:50.580Z,59.19
2022-10-26T09:02:19.231Z,59.69
2022-10-26T09:04:48.921Z,58.91
2022-10-26T09:07:33.715Z,57.84
2022-10-26T09:10:13.326Z,55.77
2022-10-26T09:12:49.954Z,54.70
2022-10-26T09:15:27.769Z,53.63
2022-10-26T09:18:06.703Z,52.30
2022-10-26T09:21:02.999Z,51.43
2022-10-26T09:23:51.151Z,51.53
2022-10-26T09:26:30.009Z,51.57
2022-10-26T09:29:03.066Z,52.25
2022-10-26T09:31:32.994Z,53.13
2022-10-26T09:34:06.554Z,53.77
2022-10-26T09:36:37.560Z,53.73
2022-10-26T09:39:15.713Z,53.48
2022-10-26T09:41:48.816Z,53.67
2022-10-26T09:44:27.465Z,53.36
2022-10-26T09:46:59.835Z,53.27
2022-10-26T09:49:34.851Z,52.30
2022-10-26T09:52:05.612Z,49.75
2022-10-26T09:54:33.820Z,47.89
2022-10-26T09:57:03.089Z,48.30
2022-10-26T09:59:35.040Z,49.17
2022-10-26T10:02:27.477Z,50.51
2022-10-26T10:04:55.546Z,51.02
2022-10-26T10:07:25.059Z,52.28
2022-10-26T10:10:09.359Z,53.20
2022-10-26T10:12:37.426Z,53.36
2022-10-26T10:15:06.055Z,54.75
2022-10-26T10:17:35.131Z,56.69
2022-10-26T10:20:13.562Z,56.54
2022-10-26T10:22:56.378Z,56.10
2022-10-26T10:25:33.576Z,56.15
2022-10-26T10:28:01.675Z,55.63
2022-10-26T10:30:32.210Z,55.65
2022-10-26T10:33:08.188Z,55.25
2022-10-26T10:35:37.027Z,54.87
2022-10-26T10:38:06.655Z,57.32
2022-10-26T10:40:35.846Z,63.54
2022-10-26T10:43:08.266Z,63.64
2022-10-26T10:45:37.434Z,61.01
2022-10-26T10:48:14.732Z,57.90
2022-10-26T10:50:54.421Z,55.37
2022-10-26T10:53:27.202Z,52.89
2022-10-26T10:56:10.787Z,54.06
2022-10-26T10:58:49.394Z,53.56
2022-10-26T11:01:22.915Z,54.44
2022-10-26T11:04:16.824Z,55.20
2022-10-26T11:06:46.644Z,56.58
2022-10-26T11:09:20.395Z,57.68
2022-10-26T11:11:52.096Z,57.02
2022-10-26T11:14:25.293Z,57.26
2022-10-26T11:16:58.131Z,55.65
2022-10-26T11:19:33.880Z,56.11
2022-10-26T11:22:06.268Z,58.81
2022-10-26T11:24:44.046Z,58.86
2022-10-26T11:27:17.198Z,57.59
2022-10-26T11:29:53.435Z,57.10
2022-10-26T11:32:25.131Z,57.25
2022-10-26T11:34:59.651Z,56.46
2022-10-26T11:37:37.604Z,55.16
2022-10-26T11:40:20.225Z,53.50
2022-10-26T11:42:53.611Z,50.98
2022-10-26T11:45:26.565Z,53.52
2022-10-26T11:47:59.472Z,53.34
2022-10-26T11:50:34.028Z,55.01
2022-10-26T11:53:07.561Z,55.74
2022-10-26T11:55:38.296Z,56.52
2022-10-26T11:58:06.857Z,56.83
2022-10-26T12:00:38.821Z,56.40
2022-10-26T12:03:11.724Z,56.62
2022-10-26T12:05:47.996Z,58.46
2022-10-26T12:08:20.377Z,57.70
2022-10-26T12:10:57.437Z,56.28
2022-10-26T12:13:34.218Z,53.89
2022-10-26T12:16:08.452Z,54.58
2022-10-26T12:18:55.062Z,54.50
2022-10-26T12:21:28.300Z,54.47
2022-10-26T12:23:58.830Z,52.53
2022-10-26T12:26:53.665Z,54.37
2022-10-26T12:29:46.109Z,57.61
2022-10-26T12:32:50.828Z,57.60
2022-10-26T12:35:37.577Z,58.34
2022-10-26T12:38:44.660Z,59.80
2022-10-26T12:41:20.931Z,59.13
2022-10-26T12:43:50.406Z,58.43
2022-10-26T12:46:43.127Z,58.60
2022-10-26T12:49:58.446Z,58.33
2022-10-26T12:52:50.225Z,58.47
2022-10-26T12:56:04.057Z,57.51
2022-10-26T12:58:43.803Z,58.94
2022-10-26T13:01:43.261Z,58.05
2022-10-26T13:04:50.671Z,58.14
2022-10-26T13:07:22.173Z,60.21
2022-10-26T13:09:59.548Z,59.73
2022-10-26T13:12:29.182Z,59.09
2022-10-26T13:15:03.217Z,60.58
2022-10-26T13:20:08.700Z,62.47
2022-10-26T13:22:47.704Z,64.05
2022-10-26T13:25:23.942Z,64.17
2022-10-26T13:28:04.547Z,64.48
2022-10-26T13:30:45.890Z,65.71
2022-10-26T13:33:32.561Z,66.45
2022-10-26T13:36:07.864Z,67.51
2022-10-26T13:38:38.698Z,68.81
2022-10-26T13:41:20.249Z,69.37
2022-10-26T13:43:49.645Z,70.35
2022-10-26T13:46:27.684Z,70.30
2022-10-26T13:49:05.965Z,71.16
2022-10-26T13:51:42.276Z,71.92
2022-10-26T13:54:23.067Z,72.25
2022-10-26T13:57:03.205Z,73.80
2022-10-26T13:59:34.388Z,76.04
2022-10-26T14:02:17.035Z,77.12
2022-10-26T14:04:49.374Z,78.37
2022-10-26T14:07:23.254Z,78.73
2022-10-26T14:09:56.469Z,79.66
2022-10-26T14:12:26.095Z,80.27
2022-10-26T14:14:55.412Z,81.11
2022-10-26T14:17:27.197Z,81.77
2022-10-26T14:19:56.839Z,83.57
2022-10-26T14:22:27.978Z,84.27
2022-10-26T14:24:57.324Z,84.99
2022-10-26T14:27:28.363Z,85.61
2022-10-26T14:30:20.915Z,87.21
2022-10-26T14:32:46.007Z,87.34
2022-10-26T14:35:16.254Z,88.34
2022-10-26T14:37:50.816Z,89.33
2022-10-26T14:40:20.816Z,89.76
2022-10-26T14:42:51.730Z,90.19
2022-10-26T14:45:47.216Z,90.17
2022-10-26T14:48:22.340Z,91.35
2022-10-26T14:51:03.196Z,92.53
2022-10-26T14:53:36.311Z,94.11
2022-10-26T14:56:07.789Z,96.06
2022-10-26T14:58:36.430Z,96.49
2022-10-26T15:01:36.284Z,97.42
2022-10-26T15:04:07.427Z,97.72
2022-10-26T15:06:46.606Z,98.73
2022-10-26T15:09:33.345Z,99.31
2022-10-26T15:12:03.109Z,99.30
2022-10-26T15:14:31.702Z,99.44
2022-10-26T15:17:00.397Z,99.68
2022-10-26T15:19:29.212Z,100.00
2022-10-26T15:21:59.091Z,100.00
2022-10-26T15:24:34.515Z,100.00
2022-10-26T15:27:13.373Z,100.00
2022-10-26T15:29:44.230Z,100.00
2022-10-26T15:32:31.549Z,100.00
2022-10-26T15:35:27.486Z,100.00
2022-10-26T15:37:58.729Z,100.00
2022-10-26T15:40:29.240Z,100.00
2022-10-26T15:43:00.997Z,100.00
2022-10-26T15:45:33.244Z,100.00
2022-10-26T15:48:18.315Z,100.00
2022-10-26T15:50:46.420Z,100.00
2022-10-26T15:53:20.747Z,100.00
2022-10-26T15:55:49.275Z,100.00
2022-10-26T15:58:17.786Z,100.00
2022-10-26T16:00:47.352Z,100.00
2022-10-26T16:03:20.177Z,100.00
2022-10-26T16:05:48.782Z,100.00
2022-10-26T16:08:19.520Z,100.00
2022-10-26T16:10:48.668Z,100.00
2022-10-26T16:13:17.308Z,100.00
2022-10-26T16:15:46.226Z,100.00
2022-10-26T16:18:15.141Z,100.00
2022-10-26T16:20:47.065Z,100.00
2022-10-26T16:23:15.618Z,100.00
2022-10-26T16:25:46.750Z,100.00
2022-10-26T16:28:17.217Z,100.00
2022-10-26T16:30:46.037Z,100.00
2022-10-26T16:33:14.596Z,100.00
2022-10-26T16:35:44.377Z,100.00
2022-10-26T16:38:12.533Z,100.00
2022-10-26T16:40:42.700Z,100.00
2022-10-26T16:43:12.506Z,100.00
2022-10-26T16:45:42.181Z,100.00
2022-10-26T16:48:14.995Z,100.00
2022-10-26T16:50:43.248Z,100.00
2022-10-26T16:53:11.513Z,100.00
2022-10-26T16:55:39.749Z,100.00
2022-10-26T16:58:08.062Z,100.00
2022-10-26T17:00:38.172Z,100.00
2022-10-26T17:03:06.434Z,100.00
2022-10-26T17:05:34.858Z,100.00
2022-10-26T17:08:03.226Z,100.00
2022-10-26T17:10:31.277Z,100.00
2022-10-26T17:12:59.517Z,100.00
2022-10-26T17:15:29.121Z,100.00
2022-10-26T17:17:58.875Z,100.00
2022-10-26T17:20:27.477Z,100.00
2022-10-26T17:22:58.240Z,100.00
2022-10-26T17:25:26.484Z,100.00
2022-10-26T17:27:55.484Z,100.00
2022-10-26T17:30:23.836Z,100.00
2022-10-26T17:32:52.451Z,100.00
2022-10-26T17:35:22.879Z,100.00
2022-10-26T17:37:51.076Z,100.00
2022-10-26T17:40:19.456Z,100.00
2022-10-26T17:42:47.837Z,100.00
2022-10-26T17:45:16.088Z,100.00
2022-10-26T17:47:44.232Z,100.00
2022-10-26T17:50:12.646Z,100.00
2022-10-26T17:52:42.280Z,100.00
2022-10-26T17:55:10.858Z,100.00
2022-10-26T17:57:38.976Z,100.00
2022-10-26T18:00:08.042Z,100.00
2022-10-26T18:02:37.683Z,100.00
2022-10-26T18:05:07.591Z,100.00
2022-10-26T18:07:36.193Z,100.00
2022-10-26T18:10:14.056Z,100.00
2022-10-26T18:12:54.748Z,100.00
2022-10-26T18:15:24.886Z,100.00
2022-10-26T18:17:58.210Z,100.00
2022-10-26T18:20:28.786Z,100.00
2022-10-26T18:22:57.514Z,100.00
2022-10-26T18:25:27.764Z,100.00
2022-10-26T18:27:55.954Z,100.00
2022-10-26T18:30:24.586Z,100.00
2022-10-26T18:32:53.960Z,100.00
2022-10-26T18:35:22.668Z,100.00
2022-10-26T18:37:51.410Z,100.00
2022-10-26T18:40:19.705Z,100.00
2022-10-26T18:42:49.136Z,100.00
2022-10-26T18:45:17.428Z,100.00
2022-10-26T18:47:45.555Z,100.00
2022-10-26T18:50:13.607Z,100.00
2022-10-26T18:52:41.728Z,100.00
2022-10-26T18:55:10.997Z,100.00
2022-10-26T18:57:39.412Z,100.00
2022-10-26T19:00:10.712Z,100.00
2022-10-26T19:02:38.858Z,100.00
2022-10-26T19:05:08.249Z,100.00
2022-10-26T19:07:37.993Z,100.00
2022-10-26T19:10:07.767Z,100.00
2022-10-26T19:12:35.857Z,100.00
2022-10-26T19:15:07.137Z,100.00
2022-10-26T19:17:36.625Z,100.00
2022-10-26T19:20:05.558Z,98.66
2022-10-26T19:22:33.763Z,98.64
2022-10-26T19:25:03.864Z,98.87
2022-10-26T19:27:32.029Z,98.36
2022-10-26T19:30:00.328Z,97.35
2022-10-26T19:32:29.323Z,96.86
2022-10-26T19:34:58.796Z,94.54
2022-10-26T19:37:28.485Z,93.49
2022-10-26T19:39:56.926Z,94.13
2022-10-26T19:42:25.325Z,92.79
2022-10-26T19:44:53.372Z,93.00
2022-10-26T19:47:21.421Z,92.82
2022-10-26T19:49:49.749Z,92.67
2022-10-26T19:54:52.156Z,91.59
2022-10-26T19:57:20.283Z,91.98
2022-10-26T19:59:48.561Z,92.07
2022-10-26T20:02:16.665Z,91.64
2022-10-26T20:04:45.412Z,91.71
2022-10-26T20:07:15.339Z,91.63
2022-10-26T20:09:44.847Z,90.97
2022-10-26T20:12:13.992Z,91.31
2022-10-26T20:14:42.308Z,90.82
2022-10-26T20:17:10.404Z,91.05
2022-10-26T20:19:38.522Z,91.24
2022-10-26T20:22:06.716Z,91.04
2022-10-26T20:24:34.830Z,89.49
2022-10-26T20:27:04.481Z,88.48
2022-10-26T20:29:32.690Z,87.13
2022-10-26T20:32:00.768Z,86.19
2022-10-26T20:37:02.130Z,85.68
2022-10-26T20:39:30.760Z,85.25
2022-10-26T20:41:59.517Z,85.74
2022-10-26T20:44:33.175Z,86.29
2022-10-26T20:47:01.796Z,86.59
2022-10-26T20:49:30.369Z,86.54
2022-10-26T20:52:21.881Z,86.91
2022-10-26T20:54:55.137Z,83.95
2022-10-26T20:57:30.220Z,84.07
2022-10-26T21:00:04.157Z,82.47
2022-10-26T21:02:32.556Z,82.45
2022-10-26T21:05:00.674Z,82.45
2022-10-26T21:07:28.754Z,82.35
2022-10-26T21:09:56.867Z,82.07
2022-10-26T21:12:25.063Z,82.02
2022-10-26T21:14:53.222Z,82.14
2022-10-26T21:17:22.891Z,82.19
2022-10-26T21:19:50.979Z,81.26
2022-10-26T21:22:19.345Z,80.65
2022-10-26T21:24:47.646Z,80.03
2022-10-26T21:27:15.896Z,80.02
2022-10-26T21:29:43.975Z,78.84
2022-10-26T21:32:12.103Z,79.09
2022-10-26T21:34:41.576Z,79.30
2022-10-26T21:37:09.759Z,78.99
2022-10-26T21:39:38.033Z,80.50
2022-10-26T21:42:06.233Z,80.19
2022-10-26T21:44:40.902Z,80.28
2022-10-26T21:47:10.071Z,79.89
2022-10-26T21:49:38.299Z,80.60
2022-10-26T21:52:09.159Z,81.30
2022-10-26T21:54:37.452Z,80.39
2022-10-26T21:57:05.677Z,80.11
2022-10-26T21:59:33.817Z,80.27
2022-10-26T22:02:01.950Z,79.75
2022-10-26T22:04:30.575Z,80.14
2022-10-26T22:06:58.713Z,80.60
2022-10-26T22:09:28.124Z,80.87
2022-10-26T22:11:56.208Z,81.34
2022-10-26T22:14:24.558Z,81.40
2022-10-26T22:16:52.727Z,82.23
2022-10-26T22:19:20.883Z,82.53
2022-10-26T22:21:48.934Z,82.78
2022-10-26T22:24:17.211Z,82.92
2022-10-26T22:26:46.788Z,83.01
2022-10-26T22:29:14.863Z,83.14
2022-10-26T22:31:42.981Z,83.54
2022-10-26T22:34:15.772Z,83.21
2022-10-26T22:36:44.304Z,82.60
2022-10-26T22:39:12.446Z,82.37
2022-10-26T22:41:40.567Z,82.07
2022-10-26T22:44:10.152Z,80.72
2022-10-26T22:46:38.147Z,79.55
2022-10-26T22:49:06.263Z,79.25
2022-10-26T22:51:35.968Z,79.01
2022-10-26T22:54:05.966Z,78.77
2022-10-26T22:56:36.103Z,79.04
2022-10-26T22:59:04.549Z,79.18
2022-10-26T23:01:37.227Z,79.00
2022-10-26T23:04:05.907Z,78.73
2022-10-26T23:06:34.427Z,77.86
2022-10-26T23:09:02.638Z,77.83
2022-10-26T23:11:30.901Z,77.96
2022-10-26T23:14:00.571Z,77.80
2022-10-26T23:16:29.978Z,77.53
2022-10-26T23:18:59.861Z,77.55
2022-10-26T23:21:29.625Z,76.98
2022-10-26T23:23:58.217Z,76.92
2022-10-26T23:26:26.371Z,76.91
2022-10-26T23:28:54.458Z,76.81
2022-10-26T23:31:24.144Z,76.73
2022-10-26T23:33:53.145Z,76.56
2022-10-26T23:36:22.938Z,76.23
2022-10-26T23:38:51.008Z,75.88
2022-10-26T23:41:19.167Z,75.82
2022-10-26T23:43:47.542Z,75.54
2022-10-26T23:46:16.069Z,75.09
2022-10-26T23:48:44.384Z,74.68
2022-10-26T23:51:12.610Z,74.38
2022-10-26T23:53:42.106Z,73.45
2022-10-26T23:56:10.278Z,73.39
2022-10-26T23:58:38.564Z,72.89
